createdAt,value
2023-05-11T00:04:48.089Z,96593.69
2023-05-11T00:10:10.926Z,96584.69
2023-05-11T00:15:32.333Z,96582.72
2023-05-11T00:20:54.650Z,96581.41
2023-05-11T00:26:17.040Z,96574.69
2023-05-11T00:31:39.097Z,96579.28
2023-05-11T00:37:00.186Z,96584.50
2023-05-11T00:42:21.622Z,96582.88
2023-05-11T00:47:42.624Z,96581.50
2023-05-11T00:53:03.758Z,96581.34
2023-05-11T00:58:25.801Z,96586.28
2023-05-11T01:03:47.756Z,96587.06
2023-05-11T01:09:36.534Z,96587.72
2023-05-11T01:15:00.561Z,96585.75
2023-05-11T01:20:27.329Z,96588.81
2023-05-11T01:26:14.075Z,96591.59
2023-05-11T01:31:40.082Z,96595.66
2023-05-11T01:37:10.054Z,96595.63
2023-05-11T01:42:36.728Z,96588.56
2023-05-11T01:48:00.388Z,96595.09
2023-05-11T01:53:22.827Z,96601.78
2023-05-11T01:58:45.521Z,96603.22
2023-05-11T02:04:09.401Z,96607.13
2023-05-11T02:09:32.756Z,96605.81
2023-05-11T02:14:57.188Z,96610.53
2023-05-11T02:20:19.949Z,96608.69
2023-05-11T02:25:43.881Z,96611.47
2023-05-11T02:31:10.741Z,96606.53
2023-05-11T02:36:34.241Z,96601.78
2023-05-11T02:41:58.750Z,96603.06
2023-05-11T02:47:22.737Z,96599.94
2023-05-11T02:52:47.530Z,96599.44
2023-05-11T02:58:09.031Z,96605.47
2023-05-11T03:03:33.528Z,96613.19
2023-05-11T03:08:55.163Z,96610.03
2023-05-11T03:14:18.539Z,96600.72
2023-05-11T03:19:42.029Z,96607.06
2023-05-11T03:25:07.732Z,96606.41
2023-05-11T03:30:30.061Z,96614.72
2023-05-11T03:35:54.243Z,96615.00
2023-05-11T03:41:19.243Z,96614.59
2023-05-11T03:46:46.146Z,96622.28
2023-05-11T03:52:10.574Z,96620.66
2023-05-11T03:57:31.730Z,96619.31
2023-05-11T04:02:53.292Z,96621.44
2023-05-11T04:08:15.434Z,96626.13
2023-05-11T04:13:37.104Z,96629.41
2023-05-11T04:18:58.983Z,96627.25
2023-05-11T04:24:19.981Z,96626.75
2023-05-11T04:29:41.237Z,96626.75
2023-05-11T04:35:01.867Z,96628.22
2023-05-11T04:40:27.239Z,96627.03
2023-05-11T04:45:50.499Z,96626.53
2023-05-11T04:51:19.510Z,96633.06
2023-05-11T04:56:41.257Z,96625.16
2023-05-11T05:02:04.437Z,96632.38
2023-05-11T05:07:25.472Z,96629.63
2023-05-11T05:12:46.973Z,96641.03
2023-05-11T05:18:09.053Z,96643.84
2023-05-11T05:23:31.007Z,96654.41
2023-05-11T05:28:52.017Z,96657.38
2023-05-11T05:34:16.477Z,96656.19
2023-05-11T05:39:38.731Z,96661.91
2023-05-11T05:45:00.982Z,96663.59
2023-05-11T05:50:22.514Z,96673.28
2023-05-11T05:55:43.599Z,96676.28
2023-05-11T06:01:08.738Z,96684.50
2023-05-11T06:06:30.220Z,96675.34
2023-05-11T06:11:51.271Z,96688.94
2023-05-11T06:17:13.353Z,96699.28
2023-05-11T06:22:35.616Z,96694.13
2023-05-11T06:27:57.832Z,96698.94
2023-05-11T06:33:19.878Z,96704.75
2023-05-11T06:38:41.334Z,96705.19
2023-05-11T06:44:03.070Z,96708.19
2023-05-11T06:49:30.557Z,96712.16
2023-05-11T06:54:51.767Z,96699.59
2023-05-11T07:00:12.998Z,96700.59
2023-05-11T07:05:34.118Z,96699.81
2023-05-11T07:10:55.193Z,96704.53
2023-05-11T07:16:16.077Z,96702.72
2023-05-11T07:21:37.052Z,96703.50
2023-05-11T07:26:57.735Z,96708.59
2023-05-11T07:32:18.550Z,96706.59
2023-05-11T07:37:39.499Z,96711.38
2023-05-11T07:43:00.372Z,96700.50
2023-05-11T07:48:21.683Z,96698.31
2023-05-11T07:53:45.105Z,96702.16
2023-05-11T07:59:06.591Z,96702.94
2023-05-11T08:04:28.351Z,96695.94
2023-05-11T08:09:49.369Z,96699.78
2023-05-11T08:15:10.677Z,96692.31
2023-05-11T08:20:31.609Z,96707.38
2023-05-11T08:25:53.889Z,96706.34
2023-05-11T08:31:14.688Z,96696.97
2023-05-11T08:36:36.337Z,96698.91
2023-05-11T08:41:58.205Z,96698.31
2023-05-11T08:47:22.522Z,96708.56
2023-05-11T08:52:44.014Z,96703.06
2023-05-11T08:58:07.294Z,96699.66
2023-05-11T09:03:30.240Z,96699.72
2023-05-11T09:08:51.516Z,96708.59
2023-05-11T09:14:13.170Z,96706.34
2023-05-11T09:19:34.545Z,96697.59
2023-05-11T09:24:55.645Z,96693.31
2023-05-11T09:30:23.169Z,96691.31
2023-05-11T09:35:44.421Z,96701.34
2023-05-11T09:41:08.487Z,96698.97
2023-05-11T09:46:29.372Z,96706.34
2023-05-11T09:52:01.525Z,96696.16
2023-05-11T09:57:24.308Z,96696.69
2023-05-11T10:02:45.494Z,96690.94
2023-05-11T10:08:07.418Z,96697.59
2023-05-11T10:13:30.822Z,96693.97
2023-05-11T10:18:52.559Z,96695.47
2023-05-11T10:24:14.127Z,96698.94
2023-05-11T10:29:37.437Z,96684.97
2023-05-11T10:34:59.373Z,96696.84
2023-05-11T10:40:21.051Z,96696.16
2023-05-11T10:46:20.200Z,96673.63
2023-05-11T10:52:19.999Z,96685.25
2023-05-11T10:57:58.107Z,96687.66
2023-05-11T11:03:19.128Z,96671.03
2023-05-11T11:09:02.741Z,96680.94
2023-05-11T11:14:26.423Z,96695.47
2023-05-11T11:19:47.466Z,96688.44
2023-05-11T11:25:09.986Z,96692.22
2023-05-11T11:30:30.954Z,96695.84
2023-05-11T11:35:52.381Z,96693.84
2023-05-11T11:41:29.037Z,96691.66
2023-05-11T11:47:10.945Z,96695.19
2023-05-11T11:52:31.892Z,96689.97
2023-05-11T11:57:52.676Z,96679.59
2023-05-11T12:03:23.121Z,96693.72
2023-05-11T12:08:44.512Z,96684.53
2023-05-11T12:14:09.036Z,96694.31
2023-05-11T12:19:31.013Z,96704.38
2023-05-11T12:24:57.739Z,96698.09
2023-05-11T12:30:22.344Z,96699.47
2023-05-11T12:35:44.064Z,96696.63
2023-05-11T12:41:06.114Z,96702.63
2023-05-11T12:46:27.312Z,96688.88
2023-05-11T12:52:01.312Z,96697.13
2023-05-11T12:57:27.237Z,96698.13
2023-05-11T13:02:56.723Z,96687.06
2023-05-11T13:08:22.402Z,96682.34
2023-05-11T13:13:43.900Z,96671.63
2023-05-11T13:19:06.605Z,96660.75
2023-05-11T13:24:27.869Z,96662.03
2023-05-11T13:29:49.115Z,96673.63
2023-05-11T13:35:10.458Z,96681.22
2023-05-11T13:40:31.668Z,96679.84
2023-05-11T13:45:52.898Z,96677.75
2023-05-11T13:51:14.758Z,96676.25
2023-05-11T13:56:37.490Z,96663.66
2023-05-11T14:01:59.031Z,96667.72
2023-05-11T14:07:20.202Z,96672.66
2023-05-11T14:12:41.725Z,96674.22
2023-05-11T14:18:05.409Z,96677.72
2023-05-11T14:23:26.507Z,96674.72
2023-05-11T14:28:47.697Z,96675.81
2023-05-11T14:34:08.847Z,96674.91
2023-05-11T14:39:29.890Z,96667.38
2023-05-11T14:44:52.429Z,96669.81
2023-05-11T14:50:13.344Z,96669.38
2023-05-11T14:55:39.531Z,96678.03
2023-05-11T15:01:00.911Z,96672.94
2023-05-11T15:06:22.683Z,96673.03
2023-05-11T15:11:43.651Z,96673.03
2023-05-11T15:17:04.720Z,96672.41
2023-05-11T15:22:25.765Z,96674.59
2023-05-11T15:27:46.910Z,96682.72
2023-05-11T15:33:09.193Z,96686.16
2023-05-11T15:38:31.062Z,96679.50
2023-05-11T15:43:52.987Z,96686.22
2023-05-11T15:49:13.829Z,96689.56
2023-05-11T15:54:36.109Z,96693.50
2023-05-11T15:59:57.190Z,96685.69
2023-05-11T16:05:18.217Z,96692.09
2023-05-11T16:10:42.792Z,96696.16
2023-05-11T16:16:04.476Z,96700.78
2023-05-11T16:21:25.382Z,96696.88
2023-05-11T16:26:46.281Z,96697.13
2023-05-11T16:32:07.517Z,96701.22
2023-05-11T16:37:28.832Z,96698.88
2023-05-11T16:42:50.242Z,96691.59
2023-05-11T16:48:15.822Z,96694.25
2023-05-11T16:53:39.468Z,96696.88
2023-05-11T16:59:00.548Z,96702.69
2023-05-11T17:04:21.688Z,96704.03
2023-05-11T17:09:42.644Z,96707.03
2023-05-11T17:15:04.826Z,96710.56
2023-05-11T17:20:25.871Z,96713.81
2023-05-11T17:25:46.966Z,96707.28
2023-05-11T17:31:13.583Z,96708.94
2023-05-11T17:36:35.704Z,96705.00
2023-05-11T17:41:56.900Z,96711.47
2023-05-11T17:47:17.983Z,96715.66
2023-05-11T17:52:38.708Z,96717.72
2023-05-11T17:57:59.932Z,96715.47
2023-05-11T18:03:21.172Z,96721.38
2023-05-11T18:08:42.850Z,96726.72
2023-05-11T18:14:04.080Z,96724.97
2023-05-11T18:19:26.354Z,96725.88
2023-05-11T18:24:47.121Z,96732.88
2023-05-11T18:30:08.608Z,96735.75
2023-05-11T18:35:33.891Z,96735.75
2023-05-11T18:40:56.398Z,96735.25
2023-05-11T18:46:17.565Z,96737.34
2023-05-11T18:51:38.957Z,96744.25
2023-05-11T18:56:59.675Z,96748.56
2023-05-11T19:02:23.797Z,96750.22
2023-05-11T19:07:46.472Z,96756.09
2023-05-11T19:13:07.932Z,96767.22
2023-05-11T19:18:32.404Z,96766.00
2023-05-11T19:23:53.722Z,96774.00
2023-05-11T19:29:24.554Z,96773.22
2023-05-11T19:35:05.054Z,96783.13
2023-05-11T19:40:45.203Z,96776.91
2023-05-11T19:46:16.259Z,96784.13
2023-05-11T19:51:36.901Z,96781.38
2023-05-11T19:56:59.774Z,96780.97
2023-05-11T20:02:20.591Z,96783.00
2023-05-11T20:07:41.761Z,96786.34
2023-05-11T20:13:06.370Z,96787.47
2023-05-11T20:18:27.361Z,96787.38
2023-05-11T20:23:48.257Z,96788.69
2023-05-11T20:29:10.418Z,96775.69
2023-05-11T20:34:31.510Z,96773.53
2023-05-11T20:39:52.378Z,96774.41
2023-05-11T20:45:13.269Z,96770.97
2023-05-11T20:50:34.417Z,96772.94
2023-05-11T20:55:55.026Z,96769.53
2023-05-11T21:01:16.113Z,96767.19
2023-05-11T21:06:37.052Z,96754.34
2023-05-11T21:11:59.105Z,96756.84
2023-05-11T21:17:20.341Z,96753.59
2023-05-11T21:22:41.410Z,96757.88
2023-05-11T21:28:02.335Z,96753.91
2023-05-11T21:33:23.175Z,96754.44
2023-05-11T21:38:44.348Z,96758.69
2023-05-11T21:44:05.681Z,96761.31
2023-05-11T21:49:26.516Z,96775.25
2023-05-11T21:54:47.303Z,96771.13
2023-05-11T22:00:09.795Z,96767.22
2023-05-11T22:05:30.995Z,96769.81
2023-05-11T22:10:52.146Z,96777.06
2023-05-11T22:16:13.264Z,96778.84
2023-05-11T22:21:34.013Z,96778.50
2023-05-11T22:26:55.011Z,96773.78
2023-05-11T22:32:16.398Z,96773.25
2023-05-11T22:37:37.171Z,96769.47
2023-05-11T22:42:58.142Z,96781.28
2023-05-11T22:48:19.186Z,96775.41
2023-05-11T22:53:40.020Z,96780.16
2023-05-11T22:59:01.010Z,96776.22
2023-05-11T23:04:22.226Z,96772.28
2023-05-11T23:09:43.191Z,96766.72
2023-05-11T23:15:05.094Z,96769.31
2023-05-11T23:20:26.227Z,96768.53
2023-05-11T23:25:47.032Z,96770.50
2023-05-11T23:31:07.789Z,96769.03
2023-05-11T23:36:28.539Z,96764.44
2023-05-11T23:41:49.454Z,96769.03
2023-05-11T23:47:10.278Z,96764.44
2023-05-11T23:52:31.284Z,96759.84
2023-05-11T23:57:52.499Z,96764.25
